Woodburn, Iowa
Current Conditions -  °F | °C
As of 5:15 PM on Saturday 25 Oct 2014 (Local Time) from KI75 Reporting Station
Clear Clear  
Wind Chill: 72°   Ceiling: Unl
Heat Index: 72°   Visibility: 10mi
Dew Point: 39°   Wind: 3mph
Humidity: 31%   Direction: 10°N
Pressure: 30.06"   Gusts: NA
Location:  41.01°N, 93.6°W
Report Text: KI75 252215Z AUTO 01003KT 10SM CLR 22/04 A3006 RMK AO2 T02200041
Loading
Personal Weather Stations






























Interactive Weather Map
Tropical Storm Tracking
New forecast layout! Learn more

10-Day Weather Forecast

Advertisements
Track Severe Weather on mobile